createdAt,value
2018-03-17T00:00:40.982Z,0
2018-03-17T00:01:40.939Z,0
2018-03-17T00:02:40.958Z,0
2018-03-17T00:03:40.962Z,0
2018-03-17T00:04:40.974Z,0
2018-03-17T00:05:55.657Z,0
2018-03-17T00:06:41.003Z,0
2018-03-17T00:07:55.732Z,0
2018-03-17T00:08:40.771Z,0
2018-03-17T00:09:41.038Z,0
2018-03-17T00:10:55.711Z,0
2018-03-17T00:11:40.798Z,0
2018-03-17T00:12:41.071Z,0
2018-03-17T00:14:41.087Z,0
2018-03-17T00:15:41.100Z,0
2018-03-17T00:16:41.129Z,0
2018-03-17T00:17:41.174Z,0
2018-03-17T00:18:41.138Z,0
2018-03-17T00:19:55.860Z,0
2018-03-17T00:20:41.156Z,0
2018-03-17T00:21:40.914Z,0
2018-03-17T00:23:55.912Z,0
2018-03-17T00:24:55.869Z,0
2018-03-17T00:25:41.313Z,0
2018-03-17T00:26:41.331Z,0
2018-03-17T00:27:41.281Z,0
2018-03-17T00:28:41.250Z,0
2018-03-17T00:29:41.052Z,0
2018-03-17T00:30:41.013Z,0
2018-03-17T00:31:55.961Z,0
2018-03-17T00:32:41.300Z,0
2018-03-17T00:33:41.308Z,0
2018-03-17T00:34:56.001Z,0
2018-03-17T00:35:41.081Z,0
2018-03-17T00:36:41.338Z,0
2018-03-17T00:37:56.015Z,0
2018-03-17T00:38:41.356Z,0
2018-03-17T00:39:41.373Z,0
2018-03-17T00:40:56.054Z,0
2018-03-17T00:41:41.135Z,0
2018-03-17T00:42:41.403Z,0
2018-03-17T00:43:41.467Z,0
2018-03-17T00:44:41.424Z,0
2018-03-17T00:45:41.432Z,0
2018-03-17T00:46:41.492Z,0
2018-03-17T00:47:41.457Z,0
2018-03-17T00:48:41.470Z,0
2018-03-17T00:49:41.228Z,0
2018-03-17T00:50:41.488Z,0
2018-03-17T00:51:41.258Z,0
2018-03-17T00:52:56.184Z,0
2018-03-17T00:53:41.272Z,0
2018-03-17T00:54:56.195Z,0
2018-03-17T00:55:41.556Z,0
2018-03-17T00:56:41.307Z,0
2018-03-17T00:57:41.619Z,0
2018-03-17T00:58:41.583Z,0
2018-03-17T00:59:41.595Z,0
2018-03-17T01:00:41.604Z,0
2018-03-17T01:01:41.620Z,0
2018-03-17T01:02:41.675Z,0
2018-03-17T01:03:41.636Z,0
2018-03-17T01:04:41.653Z,0
2018-03-17T01:05:41.653Z,0
2018-03-17T01:06:41.671Z,0
2018-03-17T01:07:41.678Z,0
2018-03-17T01:08:56.101Z,0
2018-03-17T01:09:41.692Z,0
2018-03-17T01:10:56.428Z,0
2018-03-17T01:11:41.473Z,0
2018-03-17T01:12:41.736Z,0
2018-03-17T01:13:41.482Z,0
2018-03-17T01:14:41.760Z,0
2018-03-17T01:15:41.765Z,0
2018-03-17T01:16:41.783Z,0
2018-03-17T01:17:56.456Z,0
2018-03-17T01:18:41.538Z,0
2018-03-17T01:19:41.811Z,0
2018-03-17T01:20:41.822Z,0
2018-03-17T01:21:41.827Z,0
2018-03-17T01:22:41.834Z,0
2018-03-17T01:23:41.339Z,0
2018-03-17T01:24:56.527Z,0
2018-03-17T01:25:56.535Z,0
2018-03-17T01:26:56.606Z,0
2018-03-17T01:27:41.634Z,0
2018-03-17T01:28:41.909Z,0
2018-03-17T01:29:41.916Z,0
2018-03-17T01:31:41.929Z,0
2018-03-17T01:32:41.944Z,0
2018-03-17T01:33:41.956Z,0
2018-03-17T01:34:41.967Z,0
2018-03-17T01:35:41.725Z,0
2018-03-17T01:36:41.994Z,0
2018-03-17T01:37:41.998Z,0
2018-03-17T01:38:42.015Z,0
2018-03-17T01:39:42.085Z,0
2018-03-17T01:40:42.081Z,0
2018-03-17T01:41:42.045Z,0
2018-03-17T01:42:56.723Z,0
2018-03-17T01:43:56.478Z,0
2018-03-17T01:44:42.075Z,0
2018-03-17T01:45:42.096Z,0
2018-03-17T01:46:42.097Z,0
2018-03-17T01:47:42.113Z,0
2018-03-17T01:48:42.123Z,0
2018-03-17T01:49:42.127Z,0
2018-03-17T01:50:41.885Z,0
2018-03-17T01:51:41.947Z,0
2018-03-17T01:52:42.173Z,0
2018-03-17T01:53:42.180Z,0
2018-03-17T01:54:41.974Z,0
2018-03-17T01:55:42.239Z,0
2018-03-17T01:56:42.202Z,0
2018-03-17T01:58:56.637Z,0
2018-03-17T01:59:42.288Z,0
2018-03-17T02:00:42.253Z,0
2018-03-17T02:01:42.260Z,0
2018-03-17T02:02:42.267Z,0
2018-03-17T02:03:42.281Z,0
2018-03-17T02:04:42.307Z,0
2018-03-17T02:05:42.298Z,0
2018-03-17T02:06:42.312Z,0
2018-03-17T02:07:42.327Z,0
2018-03-17T02:08:42.333Z,0
2018-03-17T02:09:42.339Z,0
2018-03-17T02:10:42.101Z,0
2018-03-17T02:11:42.367Z,0
2018-03-17T02:12:57.043Z,0
2018-03-17T02:13:57.051Z,0
2018-03-17T02:14:57.212Z,0
2018-03-17T02:15:42.411Z,0
2018-03-17T02:16:42.419Z,0
2018-03-17T02:17:42.428Z,0
2018-03-17T02:18:42.448Z,0
2018-03-17T02:19:42.550Z,0
2018-03-17T02:20:42.467Z,0
2018-03-17T02:22:42.496Z,0
2018-03-17T02:23:57.200Z,0
2018-03-17T02:24:57.169Z,0
2018-03-17T02:25:42.560Z,0
2018-03-17T02:26:42.519Z,0
2018-03-17T02:27:42.273Z,0
2018-03-17T02:28:57.255Z,0
2018-03-17T02:29:57.221Z,0
2018-03-17T02:30:42.574Z,0
2018-03-17T02:31:42.585Z,0
2018-03-17T02:32:42.597Z,0
2018-03-17T02:33:42.648Z,0
2018-03-17T02:34:42.693Z,0
2018-03-17T02:35:42.640Z,0
2018-03-17T02:36:42.633Z,0
2018-03-17T02:37:42.720Z,0
2018-03-17T02:38:42.677Z,0
2018-03-17T02:39:57.334Z,0
2018-03-17T02:40:42.669Z,0
2018-03-17T02:41:42.438Z,0
2018-03-17T02:42:42.693Z,0
2018-03-17T02:43:42.520Z,0
2018-03-17T02:44:42.720Z,0
2018-03-17T02:45:57.399Z,0
2018-03-17T02:46:42.793Z,0
2018-03-17T02:47:57.414Z,0
2018-03-17T02:48:57.536Z,0
2018-03-17T02:49:57.439Z,0
2018-03-17T02:50:42.779Z,0
2018-03-17T02:51:42.540Z,0
2018-03-17T02:52:42.669Z,0
2018-03-17T02:53:42.810Z,0
2018-03-17T02:54:42.823Z,0
2018-03-17T02:55:42.579Z,0
2018-03-17T02:57:42.860Z,0
2018-03-17T02:58:42.957Z,0
2018-03-17T02:59:42.880Z,0
2018-03-17T03:00:42.889Z,0
2018-03-17T03:02:12.227Z,0
2018-03-17T03:02:42.912Z,0
2018-03-17T03:03:42.917Z,0
2018-03-17T03:04:42.933Z,0
2018-03-17T03:05:57.611Z,0
2018-03-17T03:06:42.967Z,0
2018-03-17T03:07:43.062Z,0
2018-03-17T03:08:42.971Z,0
2018-03-17T03:09:42.971Z,0
2018-03-17T03:10:42.988Z,0
2018-03-17T03:11:43.005Z,0
2018-03-17T03:12:43.003Z,0
2018-03-17T03:13:43.017Z,0
2018-03-17T03:14:42.772Z,0
2018-03-17T03:15:43.037Z,0
2018-03-17T03:16:57.720Z,0
2018-03-17T03:17:57.730Z,0
2018-03-17T03:18:57.791Z,0
2018-03-17T03:19:43.147Z,0
2018-03-17T03:20:42.887Z,0
2018-03-17T03:21:43.151Z,0
2018-03-17T03:22:42.859Z,0
2018-03-17T03:23:43.123Z,0
2018-03-17T03:24:43.132Z,0
2018-03-17T03:25:43.187Z,0
2018-03-17T03:26:43.148Z,0
2018-03-17T03:27:43.163Z,0
2018-03-17T03:28:57.854Z,0
2018-03-17T03:29:43.180Z,0
2018-03-17T03:30:42.950Z,0
2018-03-17T03:31:43.269Z,0
2018-03-17T03:32:57.883Z,0
2018-03-17T03:33:43.226Z,0
2018-03-17T03:34:57.897Z,0
2018-03-17T03:35:42.992Z,0
2018-03-17T03:36:43.257Z,0
2018-03-17T03:38:43.275Z,0
2018-03-17T03:40:43.299Z,0
2018-03-17T03:41:43.312Z,0
2018-03-17T03:42:43.316Z,0
2018-03-17T03:43:57.998Z,0
2018-03-17T03:44:43.349Z,0
2018-03-17T03:45:43.093Z,0
2018-03-17T03:46:43.357Z,0
2018-03-17T03:47:58.083Z,0
2018-03-17T03:48:57.841Z,0
2018-03-17T03:49:43.389Z,0
2018-03-17T03:51:43.413Z,0
2018-03-17T03:52:58.085Z,0
2018-03-17T03:53:43.440Z,0
2018-03-17T03:54:43.188Z,0
2018-03-17T03:55:42.943Z,0
2018-03-17T03:56:43.471Z,0
2018-03-17T03:57:43.485Z,0
2018-03-17T03:58:43.588Z,0
2018-03-17T03:59:42.984Z,0
2018-03-17T04:00:43.504Z,0
2018-03-17T04:01:43.258Z,0
2018-03-17T04:02:43.269Z,0
2018-03-17T04:03:43.541Z,0
2018-03-17T04:04:58.210Z,0
2018-03-17T04:05:58.222Z,0
2018-03-17T04:06:43.568Z,0
2018-03-17T04:07:43.576Z,0
2018-03-17T04:09:58.260Z,0
2018-03-17T04:10:43.613Z,0
2018-03-17T04:11:58.291Z,0
2018-03-17T04:12:43.629Z,0
2018-03-17T04:13:43.639Z,0
2018-03-17T04:14:43.653Z,0
2018-03-17T04:15:43.703Z,0
2018-03-17T04:16:43.775Z,0
2018-03-17T04:17:43.677Z,0
2018-03-17T04:18:43.688Z,0
2018-03-17T04:19:58.371Z,0
2018-03-17T04:20:58.380Z,0
2018-03-17T04:21:43.474Z,0
2018-03-17T04:22:43.732Z,0
2018-03-17T04:23:58.407Z,0
2018-03-17T04:24:43.753Z,0
2018-03-17T04:25:43.767Z,0
2018-03-17T04:26:58.434Z,0
2018-03-17T04:27:43.535Z,0
2018-03-17T04:28:43.795Z,0
2018-03-17T04:29:43.857Z,0
2018-03-17T04:30:43.876Z,0
2018-03-17T04:31:43.832Z,0
2018-03-17T04:32:43.833Z,0
2018-03-17T04:33:43.843Z,0
2018-03-17T04:34:43.853Z,0
2018-03-17T04:35:43.868Z,0
2018-03-17T04:36:58.549Z,0
2018-03-17T04:37:43.882Z,0
2018-03-17T04:38:58.564Z,0
2018-03-17T04:39:43.907Z,0
2018-03-17T04:41:43.927Z,0
2018-03-17T04:42:43.935Z,0
2018-03-17T04:43:44.000Z,0
2018-03-17T04:44:43.971Z,0
2018-03-17T04:45:43.815Z,0
2018-03-17T04:46:43.984Z,0
2018-03-17T04:47:43.987Z,0
2018-03-17T04:48:43.995Z,0
2018-03-17T04:49:58.420Z,0
2018-03-17T04:51:58.701Z,0
2018-03-17T04:52:58.709Z,0
2018-03-17T04:53:58.714Z,0
2018-03-17T04:54:58.472Z,0
2018-03-17T04:56:13.406Z,0
2018-03-17T04:56:58.744Z,0
2018-03-17T04:57:43.838Z,0
2018-03-17T04:58:58.774Z,0
2018-03-17T05:00:44.122Z,0
2018-03-17T05:01:44.131Z,0
2018-03-17T05:02:43.883Z,0
2018-03-17T05:03:44.150Z,0
2018-03-17T05:04:43.906Z,0
2018-03-17T05:05:44.168Z,0
2018-03-17T05:06:44.384Z,0
2018-03-17T05:08:58.868Z,0
2018-03-17T05:09:44.215Z,0
2018-03-17T05:10:58.933Z,0
2018-03-17T05:11:44.286Z,0
2018-03-17T05:13:44.250Z,0
2018-03-17T05:14:44.289Z,0
2018-03-17T05:15:44.288Z,0
2018-03-17T05:16:44.287Z,0
2018-03-17T05:17:44.297Z,5
2018-03-17T05:18:44.304Z,5
2018-03-17T05:19:58.983Z,5
2018-03-17T05:20:44.321Z,5
2018-03-17T05:21:44.343Z,5
2018-03-17T05:22:44.339Z,5
2018-03-17T05:23:59.021Z,5
2018-03-17T05:24:44.367Z,5
2018-03-17T05:25:44.435Z,10
2018-03-17T05:26:44.392Z,10
2018-03-17T05:27:59.073Z,10
2018-03-17T05:28:59.083Z,10
2018-03-17T05:29:59.082Z,15
2018-03-17T05:30:44.440Z,15
2018-03-17T05:31:44.438Z,15
2018-03-17T05:32:44.448Z,15
2018-03-17T05:33:44.452Z,20
2018-03-17T05:34:44.475Z,20
2018-03-17T05:35:44.500Z,20
2018-03-17T05:36:44.536Z,25
2018-03-17T05:37:44.502Z,25
2018-03-17T05:38:44.507Z,25
2018-03-17T05:39:59.187Z,25
2018-03-17T05:40:58.941Z,30
2018-03-17T05:41:44.654Z,30
2018-03-17T05:42:44.551Z,30
2018-03-17T05:43:44.304Z,30
2018-03-17T05:44:44.579Z,35
2018-03-17T05:45:44.328Z,35
2018-03-17T05:46:44.587Z,30
2018-03-17T05:48:44.615Z,35
2018-03-17T05:49:44.719Z,35
2018-03-17T05:50:44.638Z,35
2018-03-17T05:51:44.132Z,40
2018-03-17T05:52:44.656Z,40
2018-03-17T05:53:59.331Z,40
2018-03-17T05:54:44.670Z,45
2018-03-17T05:55:59.344Z,45
2018-03-17T05:56:44.692Z,50
2018-03-17T05:57:59.369Z,55
2018-03-17T05:58:44.944Z,60
2018-03-17T06:00:44.733Z,65
2018-03-17T06:02:59.425Z,75
2018-03-17T06:03:44.762Z,75
2018-03-17T06:04:44.515Z,75
2018-03-17T06:05:44.784Z,90
2018-03-17T06:06:44.802Z,110
2018-03-17T06:07:44.814Z,130
2018-03-17T06:08:44.824Z,145
2018-03-17T06:09:44.573Z,150
2018-03-17T06:10:44.689Z,165
2018-03-17T06:13:59.597Z,145
2018-03-17T06:14:59.328Z,150
2018-03-17T06:15:44.906Z,160
2018-03-17T06:16:44.920Z,175
2018-03-17T06:17:44.919Z,185
2018-03-17T06:18:44.934Z,195
2018-03-17T06:19:44.692Z,230
2018-03-17T06:20:44.753Z,295
2018-03-17T06:21:44.979Z,460
2018-03-17T06:22:44.996Z,690
2018-03-17T06:23:59.716Z,405
2018-03-17T06:25:44.769Z,245
2018-03-17T06:26:45.129Z,210
2018-03-17T06:27:59.722Z,270
2018-03-17T06:28:45.120Z,280
2018-03-17T06:29:59.744Z,190
2018-03-17T06:30:59.756Z,260
2018-03-17T06:31:59.771Z,285
2018-03-17T06:33:44.876Z,320
2018-03-17T06:34:45.165Z,345
2018-03-17T06:35:45.166Z,350
2018-03-17T06:36:45.181Z,365
2018-03-17T06:37:45.193Z,430
2018-03-17T06:38:59.871Z,495
2018-03-17T06:39:59.627Z,545
2018-03-17T06:40:44.979Z,605
2018-03-17T06:41:59.653Z,625
2018-03-17T06:43:14.597Z,655
2018-03-17T06:43:45.280Z,525
2018-03-17T06:44:45.032Z,585
2018-03-17T06:45:59.972Z,540
2018-03-17T06:46:59.983Z,385
2018-03-17T06:47:45.334Z,320
2018-03-17T06:48:45.348Z,530
2018-03-17T06:49:45.161Z,565
2018-03-17T06:50:45.388Z,545
2018-03-17T06:52:00.068Z,525
2018-03-17T06:52:45.144Z,495
2018-03-17T06:53:45.524Z,530
2018-03-17T06:54:45.180Z,585
2018-03-17T06:55:45.455Z,605
2018-03-17T06:56:45.468Z,615
2018-03-17T06:57:45.235Z,590
2018-03-17T06:58:45.523Z,410
2018-03-17T07:00:00.183Z,475
2018-03-17T07:01:00.227Z,455
2018-03-17T07:01:45.297Z,435
2018-03-17T07:02:45.574Z,415
2018-03-17T07:03:45.325Z,440
2018-03-17T07:04:45.596Z,455
2018-03-17T07:05:45.616Z,445
2018-03-17T07:07:45.700Z,475
2018-03-17T07:08:45.403Z,525
2018-03-17T07:10:00.093Z,635
2018-03-17T07:10:45.688Z,315
2018-03-17T07:11:45.724Z,755
2018-03-17T07:13:00.390Z,845
2018-03-17T07:14:00.460Z,905
2018-03-17T07:15:00.424Z,945
2018-03-17T07:16:00.185Z,215
2018-03-17T07:16:45.791Z,935
2018-03-17T07:18:00.470Z,400
2018-03-17T07:19:00.229Z,450
2018-03-17T07:19:45.835Z,285
2018-03-17T07:20:45.649Z,315
2018-03-17T07:21:45.915Z,815
2018-03-17T07:22:45.885Z,890
2018-03-17T07:23:45.901Z,690
2018-03-17T07:25:45.931Z,320
2018-03-17T07:27:00.670Z,230
2018-03-17T07:27:45.970Z,365
2018-03-17T07:28:45.987Z,265
2018-03-17T07:30:00.763Z,250
2018-03-17T07:31:00.430Z,270
2018-03-17T07:32:00.701Z,280
2018-03-17T07:33:00.714Z,260
2018-03-17T07:33:45.805Z,215
2018-03-17T07:34:46.078Z,210
2018-03-17T07:35:45.943Z,290
2018-03-17T07:36:46.158Z,235
2018-03-17T07:37:46.184Z,305
2018-03-17T07:38:45.981Z,335
2018-03-17T07:40:00.830Z,280
2018-03-17T07:41:00.580Z,370
2018-03-17T07:42:00.855Z,270
2018-03-17T07:42:46.201Z,255
2018-03-17T07:43:46.212Z,290
2018-03-17T07:45:00.644Z,265
2018-03-17T07:45:45.988Z,335
2018-03-17T07:47:00.665Z,400
2018-03-17T07:48:00.681Z,400
2018-03-17T07:49:46.303Z,410
2018-03-17T07:50:46.328Z,290
2018-03-17T07:51:46.343Z,275
2018-03-17T07:52:46.347Z,290
2018-03-17T07:53:46.362Z,285
2018-03-17T07:54:46.393Z,345
2018-03-17T07:55:46.408Z,335
2018-03-17T07:56:46.467Z,355
2018-03-17T07:57:46.187Z,360
2018-03-17T07:58:46.445Z,355
2018-03-17T07:59:46.459Z,350
2018-03-17T08:01:00.886Z,350
2018-03-17T08:01:46.284Z,345
2018-03-17T08:03:01.210Z,340
2018-03-17T08:03:46.560Z,330
2018-03-17T08:04:46.548Z,320
2018-03-17T08:05:46.363Z,320
2018-03-17T08:06:46.603Z,320
2018-03-17T08:07:46.597Z,315
2018-03-17T08:08:46.613Z,315
2018-03-17T08:09:46.628Z,305
2018-03-17T08:10:46.452Z,305
2018-03-17T08:11:46.678Z,300
2018-03-17T08:12:46.753Z,305
2018-03-17T08:13:46.193Z,325
2018-03-17T08:14:46.718Z,345
2018-03-17T08:15:46.492Z,365
2018-03-17T08:16:46.766Z,340
2018-03-17T08:19:01.508Z,340
2018-03-17T08:19:46.809Z,350
2018-03-17T08:20:46.830Z,355
2018-03-17T08:21:46.847Z,355
2018-03-17T08:22:46.607Z,335
2018-03-17T08:24:46.955Z,270
2018-03-17T08:25:46.913Z,235
2018-03-17T08:26:46.980Z,220
2018-03-17T08:27:46.806Z,210
2018-03-17T08:28:46.972Z,265
2018-03-17T08:29:46.983Z,310
2018-03-17T08:30:47.008Z,240
2018-03-17T08:32:01.680Z,325
2018-03-17T08:33:01.701Z,300
2018-03-17T08:34:01.714Z,345
2018-03-17T08:35:01.732Z,215
2018-03-17T08:36:46.849Z,330
2018-03-17T08:38:47.133Z,350
2018-03-17T08:39:46.889Z,305
2018-03-17T08:40:46.901Z,235
2018-03-17T08:41:47.177Z,345
2018-03-17T08:42:46.938Z,355
2018-03-17T08:43:47.261Z,250
2018-03-17T08:44:47.275Z,310
2018-03-17T08:45:47.243Z,280
2018-03-17T08:47:01.924Z,235
2018-03-17T08:47:47.287Z,230
2018-03-17T08:48:47.047Z,235
2018-03-17T08:50:01.720Z,235
2018-03-17T08:50:47.120Z,225
2018-03-17T08:51:46.847Z,230
2018-03-17T08:52:47.350Z,225
2018-03-17T08:53:47.376Z,225
2018-03-17T08:54:47.384Z,230
2018-03-17T08:55:47.400Z,240
2018-03-17T08:56:47.154Z,250
2018-03-17T08:57:47.429Z,260
2018-03-17T08:58:47.600Z,295
2018-03-17T08:59:47.208Z,265
2018-03-17T09:00:47.486Z,295
2018-03-17T09:01:47.241Z,285
2018-03-17T09:03:01.914Z,275
2018-03-17T09:03:47.529Z,260
2018-03-17T09:04:47.537Z,245
2018-03-17T09:06:01.961Z,275
2018-03-17T09:07:01.721Z,275
2018-03-17T09:07:47.576Z,260
2018-03-17T09:08:47.599Z,240
2018-03-17T09:09:47.370Z,255
2018-03-17T09:11:02.317Z,275
2018-03-17T09:11:47.653Z,245
2018-03-17T09:12:47.430Z,255
2018-03-17T09:13:47.179Z,210
2018-03-17T09:14:47.438Z,275
2018-03-17T09:15:47.448Z,255
2018-03-17T09:17:02.129Z,295
2018-03-17T09:18:02.605Z,360
2018-03-17T09:18:47.745Z,365
2018-03-17T09:20:47.776Z,405
2018-03-17T09:22:17.130Z,405
2018-03-17T09:23:02.224Z,415
2018-03-17T09:24:47.605Z,340
2018-03-17T09:25:47.604Z,360
2018-03-17T09:26:47.616Z,330
2018-03-17T09:27:47.886Z,360
2018-03-17T09:28:47.901Z,395
2018-03-17T09:30:02.588Z,400
2018-03-17T09:30:47.686Z,390
2018-03-17T09:31:47.695Z,370
2018-03-17T09:32:48.015Z,360
2018-03-17T09:33:47.825Z,340
2018-03-17T09:34:48.100Z,325
2018-03-17T09:35:47.505Z,315
2018-03-17T09:36:48.045Z,305
2018-03-17T09:38:02.455Z,295
2018-03-17T09:38:48.059Z,295
2018-03-17T09:40:02.756Z,295
2018-03-17T09:40:47.637Z,290
2018-03-17T09:42:02.520Z,290
2018-03-17T09:42:48.142Z,295
2018-03-17T09:43:48.197Z,285
2018-03-17T09:46:47.995Z,275
2018-03-17T09:47:48.261Z,275
2018-03-17T09:48:48.227Z,280
2018-03-17T09:49:48.248Z,285
2018-03-17T09:50:48.014Z,300
2018-03-17T09:51:48.325Z,290
2018-03-17T09:53:02.868Z,300
2018-03-17T09:54:02.979Z,300
2018-03-17T09:54:48.074Z,300
2018-03-17T09:55:48.349Z,290
2018-03-17T09:57:48.383Z,285
2018-03-17T09:58:48.157Z,290
2018-03-17T09:59:48.464Z,265
2018-03-17T10:00:47.919Z,290
2018-03-17T10:01:48.446Z,250
2018-03-17T10:02:48.470Z,245
2018-03-17T10:03:48.227Z,280
2018-03-17T10:04:48.501Z,280
2018-03-17T10:05:48.524Z,280
2018-03-17T10:07:03.206Z,285
2018-03-17T10:07:48.343Z,280
2018-03-17T10:08:48.579Z,195
2018-03-17T10:10:03.271Z,235
2018-03-17T10:11:03.278Z,215
2018-03-17T10:12:03.287Z,230
2018-03-17T10:12:48.657Z,235
2018-03-17T10:13:48.393Z,235
2018-03-17T10:14:48.669Z,220
2018-03-17T10:15:48.484Z,255
2018-03-17T10:16:48.543Z,290
2018-03-17T10:17:48.725Z,305
2018-03-17T10:19:03.403Z,205
2018-03-17T10:19:48.751Z,210
2018-03-17T10:20:48.774Z,225
2018-03-17T10:21:48.784Z,200
2018-03-17T10:23:48.867Z,200
2018-03-17T10:25:03.293Z,215
2018-03-17T10:26:03.264Z,195
2018-03-17T10:26:48.920Z,200
2018-03-17T10:27:48.874Z,200
2018-03-17T10:28:48.891Z,200
2018-03-17T10:29:48.398Z,285
2018-03-17T10:30:48.923Z,215
2018-03-17T10:32:03.453Z,215
2018-03-17T10:32:49.059Z,215
2018-03-17T10:34:48.478Z,215
2018-03-17T10:35:48.746Z,215
2018-03-17T10:36:49.030Z,230
2018-03-17T10:37:48.806Z,275
2018-03-17T10:38:49.056Z,290
2018-03-17T10:39:49.204Z,280
2018-03-17T10:41:03.758Z,210
2018-03-17T10:41:49.101Z,195
2018-03-17T10:42:48.884Z,205
2018-03-17T10:44:03.565Z,165
2018-03-17T10:45:49.158Z,235
2018-03-17T10:46:49.189Z,190
2018-03-17T10:47:49.372Z,235
2018-03-17T10:49:03.627Z,220
2018-03-17T10:49:49.282Z,180
2018-03-17T10:50:49.241Z,150
2018-03-17T10:51:49.302Z,160
2018-03-17T10:53:03.935Z,165
2018-03-17T10:53:49.277Z,160
2018-03-17T10:54:49.040Z,170
2018-03-17T10:55:49.313Z,160
2018-03-17T10:57:04.047Z,140
2018-03-17T10:57:49.344Z,145
2018-03-17T10:58:49.100Z,145
2018-03-17T10:59:49.393Z,135
2018-03-17T11:00:49.386Z,125
2018-03-17T11:02:04.072Z,140
2018-03-17T11:02:49.493Z,135
2018-03-17T11:03:49.434Z,130
2018-03-17T11:04:49.239Z,130
2018-03-17T11:05:49.459Z,135
2018-03-17T11:06:49.289Z,135
2018-03-17T11:07:49.487Z,135
2018-03-17T11:10:04.183Z,130
2018-03-17T11:12:04.336Z,125
2018-03-17T11:13:04.233Z,130
2018-03-17T11:13:49.572Z,130
2018-03-17T11:14:49.588Z,125
2018-03-17T11:15:49.604Z,125
2018-03-17T11:16:49.714Z,130
2018-03-17T11:17:49.470Z,135
2018-03-17T11:19:49.447Z,130
2018-03-17T11:20:49.462Z,135
2018-03-17T11:21:49.431Z,135
2018-03-17T11:22:49.539Z,140
2018-03-17T11:23:49.764Z,140
2018-03-17T11:24:49.569Z,145
2018-03-17T11:25:49.534Z,140
2018-03-17T11:26:49.756Z,130
2018-03-17T11:28:04.176Z,130
2018-03-17T11:28:49.898Z,135
2018-03-17T11:30:04.205Z,140
2018-03-17T11:30:49.560Z,140
2018-03-17T11:31:49.874Z,145
2018-03-17T11:32:49.897Z,145
2018-03-17T11:34:04.304Z,145
2018-03-17T11:35:04.380Z,145
2018-03-17T11:35:49.879Z,150
2018-03-17T11:37:49.644Z,145
2018-03-17T11:38:49.994Z,145
2018-03-17T11:39:49.678Z,145
2018-03-17T11:40:50.079Z,145
2018-03-17T11:41:50.009Z,150
2018-03-17T11:42:49.724Z,155
2018-03-17T11:43:49.998Z,150
2018-03-17T11:44:50.005Z,150
2018-03-17T11:46:04.680Z,155
2018-03-17T11:47:50.040Z,155
2018-03-17T11:48:49.860Z,155
2018-03-17T11:49:50.072Z,160
2018-03-17T11:50:50.083Z,160
2018-03-17T11:51:50.142Z,155
2018-03-17T11:52:49.850Z,155
2018-03-17T11:54:04.791Z,155
2018-03-17T11:55:04.828Z,155
2018-03-17T11:55:49.911Z,155
2018-03-17T11:56:49.915Z,150
2018-03-17T11:57:49.926Z,150
2018-03-17T11:58:50.238Z,150
2018-03-17T12:00:04.629Z,150
2018-03-17T12:00:50.277Z,145
2018-03-17T12:02:04.911Z,145
2018-03-17T12:03:50.264Z,140
2018-03-17T12:04:50.273Z,140
2018-03-17T12:05:50.296Z,135
2018-03-17T12:06:50.304Z,135
2018-03-17T12:07:50.068Z,130
2018-03-17T12:08:50.142Z,125
2018-03-17T12:09:50.493Z,120
2018-03-17T12:10:50.364Z,120
2018-03-17T12:11:50.165Z,120
2018-03-17T12:12:50.391Z,125
2018-03-17T12:13:50.414Z,125
2018-03-17T12:15:05.136Z,130
2018-03-17T12:16:05.096Z,135
2018-03-17T12:17:05.182Z,140
2018-03-17T12:17:50.203Z,145
2018-03-17T12:18:50.223Z,145
2018-03-17T12:20:50.565Z,145
2018-03-17T12:22:50.530Z,150
2018-03-17T12:23:50.352Z,145
2018-03-17T12:25:50.565Z,140
2018-03-17T12:26:50.581Z,135
2018-03-17T12:27:50.390Z,135
2018-03-17T12:28:50.609Z,135
2018-03-17T12:29:50.631Z,140
2018-03-17T12:30:50.641Z,145
2018-03-17T12:32:05.066Z,150
2018-03-17T12:33:05.428Z,150
2018-03-17T12:34:05.344Z,145
2018-03-17T12:34:50.684Z,140
2018-03-17T12:35:50.709Z,140
2018-03-17T12:38:50.752Z,140
2018-03-17T12:39:50.858Z,140
2018-03-17T12:40:50.775Z,145
2018-03-17T12:41:50.794Z,140
2018-03-17T12:42:50.808Z,140
2018-03-17T12:43:50.819Z,135
2018-03-17T12:45:05.495Z,135
2018-03-17T12:45:50.904Z,130
2018-03-17T12:46:50.956Z,130
2018-03-17T12:48:05.553Z,125
2018-03-17T12:48:50.889Z,125
2018-03-17T12:49:50.900Z,125
2018-03-17T12:50:50.911Z,125
2018-03-17T12:52:05.334Z,125
2018-03-17T12:52:50.940Z,125
2018-03-17T12:53:50.744Z,125
2018-03-17T12:54:51.017Z,130
2018-03-17T12:55:50.986Z,130
2018-03-17T12:56:50.483Z,125
2018-03-17T12:57:50.748Z,125
2018-03-17T12:59:05.535Z,125
2018-03-17T12:59:51.041Z,125
2018-03-17T13:00:51.047Z,125
2018-03-17T13:02:05.482Z,125
2018-03-17T13:03:05.487Z,125
2018-03-17T13:03:51.200Z,125
2018-03-17T13:04:51.109Z,130
2018-03-17T13:05:50.863Z,130
2018-03-17T13:06:51.127Z,135
2018-03-17T13:07:51.148Z,150
2018-03-17T13:08:51.260Z,155
2018-03-17T13:09:51.173Z,165
2018-03-17T13:10:51.184Z,165
2018-03-17T13:13:05.886Z,165
2018-03-17T13:13:50.816Z,165
2018-03-17T13:15:05.398Z,160
2018-03-17T13:15:51.279Z,160
2018-03-17T13:16:51.276Z,160
2018-03-17T13:17:51.083Z,165
2018-03-17T13:19:06.020Z,170
2018-03-17T13:19:51.316Z,170
2018-03-17T13:20:51.375Z,145
2018-03-17T13:22:51.358Z,170
2018-03-17T13:24:06.037Z,170
2018-03-17T13:24:51.380Z,170
2018-03-17T13:25:51.394Z,170
2018-03-17T13:26:51.463Z,170
2018-03-17T13:27:51.419Z,175
2018-03-17T13:28:51.441Z,175
2018-03-17T13:29:50.948Z,175
2018-03-17T13:30:51.217Z,175
2018-03-17T13:32:06.144Z,170
2018-03-17T13:32:50.981Z,175
2018-03-17T13:33:51.247Z,170
2018-03-17T13:35:06.195Z,150
2018-03-17T13:35:51.020Z,145
2018-03-17T13:36:51.642Z,145
2018-03-17T13:37:51.314Z,145
2018-03-17T13:38:51.331Z,160
2018-03-17T13:39:51.599Z,170
2018-03-17T13:40:51.615Z,180
2018-03-17T13:41:51.729Z,170
2018-03-17T13:42:51.637Z,155
2018-03-17T13:43:51.646Z,150
2018-03-17T13:44:51.657Z,155
2018-03-17T13:46:06.392Z,155
2018-03-17T13:46:51.740Z,150
2018-03-17T13:48:06.165Z,155
2018-03-17T13:49:06.378Z,145
2018-03-17T13:49:51.219Z,140
2018-03-17T13:51:06.155Z,140
2018-03-17T13:51:51.768Z,120
2018-03-17T13:52:51.844Z,125
2018-03-17T13:53:51.832Z,135
2018-03-17T13:55:06.217Z,115
2018-03-17T13:55:51.873Z,115
2018-03-17T13:56:51.927Z,120
2018-03-17T13:57:51.631Z,120
2018-03-17T13:58:51.903Z,120
2018-03-17T13:59:51.354Z,115
2018-03-17T14:00:51.628Z,105
2018-03-17T14:01:51.907Z,105
2018-03-17T14:02:51.914Z,100
2018-03-17T14:03:51.690Z,100
2018-03-17T14:04:51.693Z,120
2018-03-17T14:05:51.711Z,115
2018-03-17T14:07:06.117Z,110
2018-03-17T14:07:51.758Z,115
2018-03-17T14:09:06.668Z,100
2018-03-17T14:09:52.003Z,95
2018-03-17T14:10:52.017Z,95
2018-03-17T14:11:52.033Z,105
2018-03-17T14:12:52.110Z,130
2018-03-17T14:13:52.059Z,130
2018-03-17T14:14:52.080Z,135
2018-03-17T14:15:51.830Z,130
2018-03-17T14:17:06.511Z,120
2018-03-17T14:17:52.109Z,100
2018-03-17T14:20:06.553Z,95
2018-03-17T14:21:06.823Z,95
2018-03-17T14:21:52.167Z,100
2018-03-17T14:23:06.649Z,105
2018-03-17T14:23:51.847Z,115
2018-03-17T14:25:51.963Z,115
2018-03-17T14:26:52.237Z,90
2018-03-17T14:27:52.097Z,90
2018-03-17T14:28:51.747Z,90
2018-03-17T14:29:51.505Z,90
2018-03-17T14:30:51.775Z,90
2018-03-17T14:31:52.039Z,95
2018-03-17T14:32:52.065Z,90
2018-03-17T14:33:52.127Z,95
2018-03-17T14:34:52.339Z,95
2018-03-17T14:35:52.191Z,95
2018-03-17T14:36:52.118Z,95
2018-03-17T14:38:07.044Z,115
2018-03-17T14:38:52.137Z,90
2018-03-17T14:39:52.409Z,90
2018-03-17T14:41:07.084Z,85
2018-03-17T14:41:52.476Z,85
2018-03-17T14:42:52.194Z,100
2018-03-17T14:43:52.458Z,80
2018-03-17T14:44:52.567Z,115
2018-03-17T14:46:06.896Z,120
2018-03-17T14:47:06.949Z,115
2018-03-17T14:48:07.177Z,115
2018-03-17T14:48:52.273Z,115
2018-03-17T14:50:07.300Z,115
2018-03-17T14:51:06.961Z,120
2018-03-17T14:51:52.562Z,120
2018-03-17T14:52:52.574Z,120
2018-03-17T14:54:06.995Z,115
2018-03-17T14:54:52.603Z,115
2018-03-17T14:55:52.612Z,105
2018-03-17T14:56:52.372Z,80
2018-03-17T14:57:52.379Z,80
2018-03-17T14:58:52.400Z,80
2018-03-17T14:59:52.668Z,85
2018-03-17T15:00:52.426Z,110
2018-03-17T15:01:52.443Z,105